OJAM/ADJ METAR and TAF weather

Enter ICAO airport designator
Station Type Date Time Source
OJAM METAR 2021/04/13 08:00 UTC NOAA

OJAM 130800Z 10001KT 8000 FEW030 14/03 Q1021 NOSIG


Station Type Date Time Source
OJAM Decoded METAR 2021/04/13 08:00 UTC NOAA

Amman Airport, Jordan (OJAM) 31-59N 035-59E 768M
Apr 13, 2021 - 04:00 AM EDT / 2021.04.13 0800 UTC
Wind: from the E (100 degrees) at 1 MPH (1 KT):0
Visibility: 4 mile(s):0
Sky conditions: mostly clear
Temperature: 57 F (14 C)
Dew Point: 37 F (3 C)
Relative Humidity: 47%
Pressure (altimeter): 30.15 in. Hg (1021 hPa)
ob: OJAM 130800Z 10001KT 8000 FEW030 14/03 Q1021 NOSIG
cycle: 8

Station Type Date Time Source
OJAM TAF 2021/04/13 06:15 UTC NOAA

TAF OJAM 130437Z 1306/1412 29008KT 6000 HZ NSC

Example: see airport list